createdAt,value
2023-01-22T00:03:00.318Z,-3.50
2023-01-22T00:08:02.040Z,-3.70
2023-01-22T00:13:03.933Z,-3.50
2023-01-22T00:18:05.658Z,-3.50
2023-01-22T00:23:07.372Z,-3.60
2023-01-22T00:28:09.949Z,-3.60
2023-01-22T00:33:11.752Z,-3.70
2023-01-22T00:38:13.497Z,-3.70
2023-01-22T00:43:15.178Z,-3.70
2023-01-22T00:48:17.183Z,-3.90
2023-01-22T00:53:19.044Z,-4.00
2023-01-22T00:58:21.175Z,-4.00
2023-01-22T01:03:33.155Z,-3.80
2023-01-22T01:08:37.372Z,-3.80
2023-01-22T01:13:42.062Z,-3.70
2023-01-22T01:18:44.325Z,-3.70
2023-01-22T01:23:46.688Z,-4.00
2023-01-22T01:28:49.267Z,-4.00
2023-01-22T01:33:51.192Z,-4.00
2023-01-22T01:38:54.748Z,-4.10
2023-01-22T01:44:19.573Z,-4.20
2023-01-22T01:49:38.537Z,-4.10
2023-01-22T01:54:45.150Z,-4.00
2023-01-22T01:59:49.021Z,-3.90
2023-01-22T02:04:51.514Z,-3.80
2023-01-22T02:09:53.292Z,-3.80
2023-01-22T02:14:55.470Z,-3.80
2023-01-22T02:19:57.405Z,-3.70
2023-01-22T02:24:59.668Z,-3.60
2023-01-22T02:30:01.808Z,-3.50
2023-01-22T02:35:03.813Z,-3.40
2023-01-22T02:40:06.184Z,-3.40
2023-01-22T02:45:08.933Z,-3.30
2023-01-22T02:50:11.257Z,-3.30
2023-01-22T02:55:12.947Z,-3.30
2023-01-22T03:00:15.228Z,-3.30
2023-01-22T03:05:17.270Z,-3.20
2023-01-22T03:10:20.980Z,-3.30
2023-01-22T03:15:41.441Z,-3.40
2023-01-22T03:21:01.938Z,-3.30
2023-01-22T03:26:03.738Z,-3.30
2023-01-22T03:31:05.785Z,-3.30
2023-01-22T03:36:10.538Z,-3.40
2023-01-22T03:41:14.868Z,-3.50
2023-01-22T03:46:19.205Z,-3.80
2023-01-22T03:51:22.566Z,-4.20
2023-01-22T03:56:24.693Z,-4.30
2023-01-22T04:01:28.121Z,-4.40
2023-01-22T04:06:30.686Z,-4.50
2023-01-22T04:11:32.466Z,-4.70
2023-01-22T04:16:34.412Z,-4.60
2023-01-22T04:21:36.120Z,-4.70
2023-01-22T04:26:37.876Z,-4.80
2023-01-22T04:31:39.756Z,-4.80
2023-01-22T04:36:41.712Z,-4.90
2023-01-22T04:41:43.495Z,-4.90
2023-01-22T04:46:45.218Z,-5.00
2023-01-22T04:51:47.238Z,-4.90
2023-01-22T04:56:48.924Z,-5.10
2023-01-22T05:01:51.060Z,-5.10
2023-01-22T05:06:52.883Z,-5.10
2023-01-22T05:11:54.784Z,-5.10
2023-01-22T05:16:56.470Z,-5.20
2023-01-22T05:21:58.261Z,-5.10
2023-01-22T05:27:00.211Z,-5.00
2023-01-22T05:32:02.165Z,-5.00
2023-01-22T05:37:03.904Z,-5.10
2023-01-22T05:42:05.813Z,-5.00
2023-01-22T05:47:07.940Z,-5.10
2023-01-22T05:52:11.076Z,-5.30
2023-01-22T05:57:12.915Z,-5.40
2023-01-22T06:02:14.811Z,-5.40
2023-01-22T06:07:16.736Z,-5.40
2023-01-22T06:12:18.653Z,-5.40
2023-01-22T06:17:21.307Z,-5.30
2023-01-22T06:22:23.208Z,-5.30
2023-01-22T06:27:25.088Z,-5.30
2023-01-22T06:32:27.958Z,-5.40
2023-01-22T06:37:29.674Z,-5.40
2023-01-22T06:42:31.357Z,-5.40
2023-01-22T06:47:33.212Z,-5.30
2023-01-22T06:52:35.024Z,-5.30
2023-01-22T06:57:36.741Z,-5.50
2023-01-22T07:02:38.500Z,-5.40
2023-01-22T07:07:40.293Z,-5.50
2023-01-22T07:12:42.002Z,-5.50
2023-01-22T07:17:43.867Z,-5.40
2023-01-22T07:22:45.892Z,-5.30
2023-01-22T07:27:47.682Z,-5.30
2023-01-22T07:32:49.379Z,-5.20
2023-01-22T07:37:52.840Z,-5.20
2023-01-22T07:42:55.348Z,-5.00
2023-01-22T07:48:00.403Z,-4.90
2023-01-22T07:53:02.953Z,-4.80
2023-01-22T07:58:06.859Z,-4.40
2023-01-22T08:03:13.524Z,-3.90
2023-01-22T08:08:23.191Z,-3.50
2023-01-22T08:13:24.924Z,-3.30
2023-01-22T08:18:26.622Z,-3.10
2023-01-22T08:23:28.539Z,-3.00
2023-01-22T08:28:31.494Z,-3.00
2023-01-22T08:33:33.920Z,-2.70
2023-01-22T08:38:35.634Z,-2.30
2023-01-22T08:43:37.475Z,-1.30
2023-01-22T08:48:39.848Z,-1.30
2023-01-22T08:53:41.611Z,-1.90
2023-01-22T08:58:43.472Z,-2.10
2023-01-22T09:03:45.391Z,-2.40
2023-01-22T09:08:47.345Z,-2.40
2023-01-22T09:13:49.027Z,-2.40
2023-01-22T09:18:51.071Z,-2.20
2023-01-22T09:23:53.783Z,-2.00
2023-01-22T09:28:55.475Z,-1.90
2023-01-22T09:33:57.313Z,-2.20
2023-01-22T09:38:59.028Z,-2.20
2023-01-22T09:44:26.112Z,-1.90
2023-01-22T09:49:53.624Z,-2.10
2023-01-22T09:54:56.212Z,-2.00
2023-01-22T09:59:58.309Z,-2.20
2023-01-22T10:05:11.920Z,-1.90
2023-01-22T10:10:23.624Z,-1.80
2023-01-22T10:15:25.777Z,-1.90
2023-01-22T10:20:28.336Z,-2.00
2023-01-22T10:25:30.331Z,-2.10
2023-01-22T10:30:32.160Z,-2.20
2023-01-22T10:35:44.023Z,-1.90
2023-01-22T10:40:45.824Z,-1.80
2023-01-22T10:45:56.171Z,-1.70
2023-01-22T10:51:00.418Z,-1.70
2023-01-22T10:56:07.614Z,-1.80
2023-01-22T11:01:23.678Z,-1.80
2023-01-22T11:06:40.684Z,-1.80
2023-01-22T11:11:48.852Z,-1.80
2023-01-22T11:16:54.056Z,-1.70
2023-01-22T11:21:57.364Z,-1.80
2023-01-22T11:27:29.075Z,-1.80
2023-01-22T11:32:36.869Z,-1.70
2023-01-22T11:38:06.039Z,-1.70
2023-01-22T11:43:27.166Z,-1.70
2023-01-22T11:48:41.536Z,-1.50
2023-01-22T11:54:12.197Z,-1.60
2023-01-22T11:59:41.714Z,-1.50
2023-01-22T12:05:18.867Z,-1.60
2023-01-22T12:11:15.473Z,-1.60
2023-01-22T12:16:45.113Z,-1.40
2023-01-22T12:22:04.969Z,-1.50
2023-01-22T12:27:18.235Z,-1.50
2023-01-22T12:32:23.099Z,-1.50
2023-01-22T12:37:32.698Z,-1.50
2023-01-22T12:42:45.715Z,-1.50
2023-01-22T12:48:18.823Z,-1.50
2023-01-22T12:53:35.856Z,-1.50
2023-01-22T12:58:40.841Z,-1.40
2023-01-22T13:03:42.765Z,-1.40
2023-01-22T13:08:45.922Z,-1.50
2023-01-22T13:13:52.198Z,-1.40
2023-01-22T13:18:57.177Z,-1.40
2023-01-22T13:24:13.350Z,-1.40
2023-01-22T13:29:34.088Z,-1.40
2023-01-22T13:34:35.935Z,-1.30
2023-01-22T13:39:37.632Z,-1.30
2023-01-22T13:44:48.047Z,-1.30
2023-01-22T13:49:49.857Z,-1.30
2023-01-22T13:55:11.064Z,-1.40
2023-01-22T14:00:33.533Z,-1.30
2023-01-22T14:05:38.687Z,-1.40
2023-01-22T14:10:42.086Z,-1.40
2023-01-22T14:15:59.432Z,-1.50
2023-01-22T14:21:01.641Z,-1.50
2023-01-22T14:26:07.456Z,-1.40
2023-01-22T14:31:09.289Z,-1.40
2023-01-22T14:36:11.028Z,-1.50
2023-01-22T14:41:12.906Z,-1.50
2023-01-22T14:46:14.809Z,-1.50
2023-01-22T14:51:16.728Z,-1.40
2023-01-22T14:56:18.546Z,-1.40
2023-01-22T15:01:22.547Z,-1.40
2023-01-22T15:06:25.123Z,-1.40
2023-01-22T15:11:26.851Z,-1.40
2023-01-22T15:16:28.596Z,-1.40
2023-01-22T15:21:30.414Z,-1.40
2023-01-22T15:26:35.308Z,-1.40
2023-01-22T15:31:37.710Z,-1.40
2023-01-22T15:36:40.713Z,-1.40
2023-01-22T15:41:43.296Z,-1.40
2023-01-22T15:46:46.387Z,-1.40
2023-01-22T15:51:48.141Z,-1.40
2023-01-22T15:56:49.923Z,-1.30
2023-01-22T16:01:52.529Z,-1.30
2023-01-22T16:06:54.347Z,-1.30
2023-01-22T16:11:57.379Z,-1.30
2023-01-22T16:16:59.257Z,-1.20
2023-01-22T16:22:01.198Z,-1.20
2023-01-22T16:27:02.912Z,-1.30
2023-01-22T16:32:05.148Z,-1.30
2023-01-22T16:37:06.847Z,-1.30
2023-01-22T16:42:08.528Z,-1.20
2023-01-22T16:47:10.219Z,-1.20
2023-01-22T16:52:22.506Z,-1.20
2023-01-22T16:57:24.868Z,-1.20
2023-01-22T17:02:26.787Z,-1.20
2023-01-22T17:07:34.024Z,-1.20
2023-01-22T17:12:36.214Z,-1.20
2023-01-22T17:17:37.962Z,-1.20
2023-01-22T17:22:39.764Z,-1.20
2023-01-22T17:27:41.605Z,-1.20
2023-01-22T17:32:43.564Z,-1.20
2023-01-22T17:37:45.571Z,-1.20
2023-01-22T17:42:47.368Z,-1.20
2023-01-22T17:47:49.329Z,-1.20
2023-01-22T17:52:51.937Z,-1.20
2023-01-22T17:57:57.244Z,-1.20
2023-01-22T18:02:58.971Z,-1.20
2023-01-22T18:08:00.739Z,-1.20
2023-01-22T18:13:02.451Z,-1.20
2023-01-22T18:18:04.222Z,-1.20
2023-01-22T18:23:06.049Z,-1.20
2023-01-22T18:28:07.816Z,-1.20
2023-01-22T18:33:13.482Z,-1.20
2023-01-22T18:38:15.448Z,-1.20
2023-01-22T18:43:17.335Z,-1.20
2023-01-22T18:48:21.035Z,-1.20
2023-01-22T18:53:22.823Z,-1.10
2023-01-22T18:58:29.981Z,-1.10
2023-01-22T19:03:31.801Z,-1.10
2023-01-22T19:08:34.991Z,-1.10
2023-01-22T19:13:36.740Z,-1.10
2023-01-22T19:18:42.315Z,-1.10
2023-01-22T19:23:46.348Z,-1.10
2023-01-22T19:28:48.663Z,-1.10
2023-01-22T19:33:52.412Z,-1.00
2023-01-22T19:38:55.212Z,-1.10
2023-01-22T19:44:00.805Z,-1.00
2023-01-22T19:49:02.512Z,-1.00
2023-01-22T19:54:07.277Z,-1.00
2023-01-22T19:59:16.098Z,-1.00
2023-01-22T20:04:25.264Z,-1.00
2023-01-22T20:09:28.022Z,-0.90
2023-01-22T20:14:33.044Z,-1.00
2023-01-22T20:19:38.068Z,-0.90
2023-01-22T20:24:41.085Z,-0.90
2023-01-22T20:29:43.118Z,-0.90
2023-01-22T20:34:48.838Z,-0.90
2023-01-22T20:39:50.601Z,-1.00
2023-01-22T20:44:52.464Z,-1.00
2023-01-22T20:49:54.229Z,-1.00
2023-01-22T20:55:01.911Z,-1.00
2023-01-22T21:00:05.147Z,-1.00
2023-01-22T21:05:07.067Z,-1.00
2023-01-22T21:10:09.695Z,-1.10
2023-01-22T21:15:11.644Z,-1.00
2023-01-22T21:20:13.492Z,-1.10
2023-01-22T21:25:15.303Z,-1.00
2023-01-22T21:30:17.378Z,-1.10
2023-01-22T21:35:19.436Z,-1.00
2023-01-22T21:40:21.451Z,-1.10
2023-01-22T21:45:42.045Z,-1.00
2023-01-22T21:50:44.121Z,-1.00
2023-01-22T21:55:53.107Z,-1.10
2023-01-22T22:00:55.618Z,-1.10
2023-01-22T22:06:02.048Z,-1.10
2023-01-22T22:11:04.238Z,-1.20
2023-01-22T22:16:08.010Z,-1.10
2023-01-22T22:21:12.820Z,-1.20
2023-01-22T22:26:14.586Z,-1.10
2023-01-22T22:31:16.821Z,-1.20
2023-01-22T22:36:21.892Z,-1.20
2023-01-22T22:41:26.551Z,-1.10
2023-01-22T22:46:30.471Z,-1.20
2023-01-22T22:51:35.487Z,-1.20
2023-01-22T22:56:37.274Z,-1.20
2023-01-22T23:01:39.341Z,-1.20
2023-01-22T23:06:44.876Z,-1.20
2023-01-22T23:11:47.089Z,-1.20
2023-01-22T23:16:49.513Z,-1.20
2023-01-22T23:21:54.129Z,-1.20
2023-01-22T23:26:56.826Z,-1.30
2023-01-22T23:31:58.634Z,-1.30
2023-01-22T23:37:00.511Z,-1.30
2023-01-22T23:42:02.384Z,-1.30
2023-01-22T23:47:04.113Z,-1.30
2023-01-22T23:52:06.310Z,-1.30
2023-01-22T23:57:08.105Z,-1.30
